sensor_id;sensor_type;location;lat;lon;timestamp;P1;durP1;ratioP1;P2;durP2;ratioP2
58338;SDS011;68636;52.704;6.536;2023-12-07T00:01:27;21.05;;;8.02;;
58338;SDS011;68636;52.704;6.536;2023-12-07T00:03:53;24.13;;;8.00;;
58338;SDS011;68636;52.704;6.536;2023-12-07T00:06:20;26.27;;;8.45;;
58338;SDS011;68636;52.704;6.536;2023-12-07T00:08:46;22.52;;;7.60;;
58338;SDS011;68636;52.704;6.536;2023-12-07T00:11:12;22.30;;;7.90;;
58338;SDS011;68636;52.704;6.536;2023-12-07T00:13:38;20.75;;;7.90;;
58338;SDS011;68636;52.704;6.536;2023-12-07T00:16:04;20.55;;;8.50;;
58338;SDS011;68636;52.704;6.536;2023-12-07T00:18:30;21.95;;;8.52;;
58338;SDS011;68636;52.704;6.536;2023-12-07T00:20:56;28.35;;;8.30;;
58338;SDS011;68636;52.704;6.536;2023-12-07T00:23:22;22.35;;;7.93;;
58338;SDS011;68636;52.704;6.536;2023-12-07T00:25:48;23.08;;;8.18;;
58338;SDS011;68636;52.704;6.536;2023-12-07T00:28:15;21.27;;;7.90;;
58338;SDS011;68636;52.704;6.536;2023-12-07T00:30:41;20.83;;;7.53;;
58338;SDS011;68636;52.704;6.536;2023-12-07T00:33:07;25.42;;;8.43;;
58338;SDS011;68636;52.704;6.536;2023-12-07T00:35:34;22.63;;;8.25;;
58338;SDS011;68636;52.704;6.536;2023-12-07T00:38:01;21.10;;;8.00;;
58338;SDS011;68636;52.704;6.536;2023-12-07T00:40:27;29.83;;;8.82;;
58338;SDS011;68636;52.704;6.536;2023-12-07T00:42:53;25.85;;;8.30;;
58338;SDS011;68636;52.704;6.536;2023-12-07T00:45:19;21.67;;;8.18;;
58338;SDS011;68636;52.704;6.536;2023-12-07T00:47:45;23.70;;;8.25;;
58338;SDS011;68636;52.704;6.536;2023-12-07T00:50:12;23.05;;;8.27;;
58338;SDS011;68636;52.704;6.536;2023-12-07T00:52:39;25.27;;;8.88;;
58338;SDS011;68636;52.704;6.536;2023-12-07T00:55:06;24.47;;;9.20;;
58338;SDS011;68636;52.704;6.536;2023-12-07T00:57:32;24.33;;;9.68;;
58338;SDS011;68636;52.704;6.536;2023-12-07T00:59:58;28.75;;;10.20;;
58338;SDS011;68636;52.704;6.536;2023-12-07T01:02:24;23.75;;;9.23;;
58338;SDS011;68636;52.704;6.536;2023-12-07T01:04:50;28.02;;;9.18;;
58338;SDS011;68636;52.704;6.536;2023-12-07T01:07:16;28.05;;;9.63;;
58338;SDS011;68636;52.704;6.536;2023-12-07T01:09:42;30.38;;;10.20;;
58338;SDS011;68636;52.704;6.536;2023-12-07T01:12:08;33.78;;;10.82;;
58338;SDS011;68636;52.704;6.536;2023-12-07T01:14:35;28.38;;;10.52;;
58338;SDS011;68636;52.704;6.536;2023-12-07T01:17:01;28.50;;;10.23;;
58338;SDS011;68636;52.704;6.536;2023-12-07T01:19:27;28.58;;;10.43;;
58338;SDS011;68636;52.704;6.536;2023-12-07T01:21:53;29.58;;;11.10;;
58338;SDS011;68636;52.704;6.536;2023-12-07T01:24:19;30.42;;;10.63;;
58338;SDS011;68636;52.704;6.536;2023-12-07T01:26:45;27.70;;;9.90;;
58338;SDS011;68636;52.704;6.536;2023-12-07T01:29:11;29.65;;;9.90;;
58338;SDS011;68636;52.704;6.536;2023-12-07T01:31:39;29.80;;;10.65;;
58338;SDS011;68636;52.704;6.536;2023-12-07T01:34:05;31.60;;;10.93;;
58338;SDS011;68636;52.704;6.536;2023-12-07T01:36:31;28.42;;;11.00;;
58338;SDS011;68636;52.704;6.536;2023-12-07T01:38:58;33.05;;;10.77;;
58338;SDS011;68636;52.704;6.536;2023-12-07T01:41:25;36.22;;;11.18;;
58338;SDS011;68636;52.704;6.536;2023-12-07T01:43:51;36.85;;;11.68;;
58338;SDS011;68636;52.704;6.536;2023-12-07T01:46:17;31.40;;;10.82;;
58338;SDS011;68636;52.704;6.536;2023-12-07T01:48:44;31.50;;;11.52;;
58338;SDS011;68636;52.704;6.536;2023-12-07T01:51:13;31.33;;;10.40;;
58338;SDS011;68636;52.704;6.536;2023-12-07T01:53:40;37.47;;;11.63;;
58338;SDS011;68636;52.704;6.536;2023-12-07T01:56:06;32.20;;;10.88;;
58338;SDS011;68636;52.704;6.536;2023-12-07T01:58:33;32.15;;;11.05;;
58338;SDS011;68636;52.704;6.536;2023-12-07T02:01:00;35.47;;;11.53;;
58338;SDS011;68636;52.704;6.536;2023-12-07T02:03:27;36.50;;;11.63;;
58338;SDS011;68636;52.704;6.536;2023-12-07T02:05:55;37.10;;;12.40;;
58338;SDS011;68636;52.704;6.536;2023-12-07T02:08:21;36.15;;;12.13;;
58338;SDS011;68636;52.704;6.536;2023-12-07T02:10:47;31.05;;;10.82;;
58338;SDS011;68636;52.704;6.536;2023-12-07T02:13:13;32.28;;;10.75;;
58338;SDS011;68636;52.704;6.536;2023-12-07T02:15:39;30.10;;;10.73;;
58338;SDS011;68636;52.704;6.536;2023-12-07T02:23:19;38.00;;;11.05;;
58338;SDS011;68636;52.704;6.536;2023-12-07T02:25:51;32.85;;;11.00;;
58338;SDS011;68636;52.704;6.536;2023-12-07T02:28:17;30.45;;;9.88;;
58338;SDS011;68636;52.704;6.536;2023-12-07T02:30:43;31.42;;;10.27;;
58338;SDS011;68636;52.704;6.536;2023-12-07T02:33:10;29.92;;;10.23;;
58338;SDS011;68636;52.704;6.536;2023-12-07T02:35:36;28.87;;;10.37;;
58338;SDS011;68636;52.704;6.536;2023-12-07T02:38:03;31.35;;;11.25;;
58338;SDS011;68636;52.704;6.536;2023-12-07T02:40:29;36.20;;;11.53;;
58338;SDS011;68636;52.704;6.536;2023-12-07T02:42:56;33.03;;;10.85;;
58338;SDS011;68636;52.704;6.536;2023-12-07T02:45:22;38.45;;;11.70;;
58338;SDS011;68636;52.704;6.536;2023-12-07T02:47:48;33.67;;;11.02;;
58338;SDS011;68636;52.704;6.536;2023-12-07T02:50:16;37.17;;;12.02;;
58338;SDS011;68636;52.704;6.536;2023-12-07T02:52:42;39.80;;;11.88;;
58338;SDS011;68636;52.704;6.536;2023-12-07T02:55:08;34.45;;;11.82;;
58338;SDS011;68636;52.704;6.536;2023-12-07T02:57:34;35.35;;;12.48;;
58338;SDS011;68636;52.704;6.536;2023-12-07T03:00:01;34.72;;;11.73;;
58338;SDS011;68636;52.704;6.536;2023-12-07T03:02:32;35.17;;;10.95;;
58338;SDS011;68636;52.704;6.536;2023-12-07T03:04:58;38.83;;;11.25;;
58338;SDS011;68636;52.704;6.536;2023-12-07T03:07:24;37.13;;;11.30;;
58338;SDS011;68636;52.704;6.536;2023-12-07T03:09:50;37.40;;;11.55;;
58338;SDS011;68636;52.704;6.536;2023-12-07T03:12:16;37.22;;;12.27;;
58338;SDS011;68636;52.704;6.536;2023-12-07T03:14:42;34.30;;;12.02;;
58338;SDS011;68636;52.704;6.536;2023-12-07T03:17:08;36.00;;;11.27;;
58338;SDS011;68636;52.704;6.536;2023-12-07T03:19:38;33.53;;;11.40;;
58338;SDS011;68636;52.704;6.536;2023-12-07T03:22:04;36.92;;;12.02;;
58338;SDS011;68636;52.704;6.536;2023-12-07T03:24:37;36.22;;;11.93;;
58338;SDS011;68636;52.704;6.536;2023-12-07T03:27:03;37.47;;;12.38;;
58338;SDS011;68636;52.704;6.536;2023-12-07T03:29:30;37.60;;;12.25;;
58338;SDS011;68636;52.704;6.536;2023-12-07T03:31:56;36.53;;;12.73;;
58338;SDS011;68636;52.704;6.536;2023-12-07T03:34:23;41.22;;;12.57;;
58338;SDS011;68636;52.704;6.536;2023-12-07T03:36:49;35.22;;;12.38;;
58338;SDS011;68636;52.704;6.536;2023-12-07T03:39:15;41.83;;;13.18;;
58338;SDS011;68636;52.704;6.536;2023-12-07T03:41:43;37.85;;;13.38;;
58338;SDS011;68636;52.704;6.536;2023-12-07T03:44:10;35.40;;;13.68;;
58338;SDS011;68636;52.704;6.536;2023-12-07T03:46:36;34.22;;;12.32;;
58338;SDS011;68636;52.704;6.536;2023-12-07T03:49:05;36.13;;;12.80;;
58338;SDS011;68636;52.704;6.536;2023-12-07T03:51:31;38.15;;;13.20;;
58338;SDS011;68636;52.704;6.536;2023-12-07T03:53:57;36.92;;;12.30;;
58338;SDS011;68636;52.704;6.536;2023-12-07T03:56:27;38.08;;;13.18;;
58338;SDS011;68636;52.704;6.536;2023-12-07T03:58:54;40.17;;;13.63;;
58338;SDS011;68636;52.704;6.536;2023-12-07T04:01:24;42.67;;;14.10;;
58338;SDS011;68636;52.704;6.536;2023-12-07T04:03:54;40.42;;;14.13;;
58338;SDS011;68636;52.704;6.536;2023-12-07T04:06:21;45.78;;;14.68;;
58338;SDS011;68636;52.704;6.536;2023-12-07T04:08:47;45.58;;;14.48;;
58338;SDS011;68636;52.704;6.536;2023-12-07T04:11:14;39.35;;;13.55;;
58338;SDS011;68636;52.704;6.536;2023-12-07T04:13:40;41.53;;;14.48;;
58338;SDS011;68636;52.704;6.536;2023-12-07T04:16:07;45.70;;;14.82;;
58338;SDS011;68636;52.704;6.536;2023-12-07T04:18:34;41.58;;;13.98;;
58338;SDS011;68636;52.704;6.536;2023-12-07T04:21:00;45.45;;;15.18;;
58338;SDS011;68636;52.704;6.536;2023-12-07T04:23:26;47.25;;;15.00;;
58338;SDS011;68636;52.704;6.536;2023-12-07T04:25:52;46.30;;;14.30;;
58338;SDS011;68636;52.704;6.536;2023-12-07T04:28:18;41.38;;;14.77;;
58338;SDS011;68636;52.704;6.536;2023-12-07T04:30:45;48.17;;;16.35;;
58338;SDS011;68636;52.704;6.536;2023-12-07T04:33:11;43.83;;;15.10;;
58338;SDS011;68636;52.704;6.536;2023-12-07T04:35:37;47.08;;;15.82;;
58338;SDS011;68636;52.704;6.536;2023-12-07T04:38:03;45.50;;;15.05;;
58338;SDS011;68636;52.704;6.536;2023-12-07T04:40:29;51.45;;;15.95;;
58338;SDS011;68636;52.704;6.536;2023-12-07T04:42:55;47.35;;;14.65;;
58338;SDS011;68636;52.704;6.536;2023-12-07T04:45:21;50.22;;;15.80;;
58338;SDS011;68636;52.704;6.536;2023-12-07T04:47:47;42.47;;;14.68;;
58338;SDS011;68636;52.704;6.536;2023-12-07T04:50:14;49.70;;;14.88;;
58338;SDS011;68636;52.704;6.536;2023-12-07T04:52:40;46.47;;;14.65;;
58338;SDS011;68636;52.704;6.536;2023-12-07T04:55:06;54.50;;;15.63;;
58338;SDS011;68636;52.704;6.536;2023-12-07T04:57:33;43.70;;;15.32;;
58338;SDS011;68636;52.704;6.536;2023-12-07T04:59:59;44.08;;;15.65;;
58338;SDS011;68636;52.704;6.536;2023-12-07T05:02:26;43.30;;;15.00;;
58338;SDS011;68636;52.704;6.536;2023-12-07T05:04:53;44.08;;;14.30;;
58338;SDS011;68636;52.704;6.536;2023-12-07T05:07:19;45.38;;;14.95;;
58338;SDS011;68636;52.704;6.536;2023-12-07T05:09:45;44.55;;;15.75;;
58338;SDS011;68636;52.704;6.536;2023-12-07T05:12:12;52.13;;;15.45;;
58338;SDS011;68636;52.704;6.536;2023-12-07T05:14:38;49.97;;;16.27;;
58338;SDS011;68636;52.704;6.536;2023-12-07T05:17:04;48.42;;;15.85;;
58338;SDS011;68636;52.704;6.536;2023-12-07T05:19:30;49.75;;;16.75;;
58338;SDS011;68636;52.704;6.536;2023-12-07T05:21:56;50.38;;;15.57;;
58338;SDS011;68636;52.704;6.536;2023-12-07T05:24:22;45.17;;;14.90;;
58338;SDS011;68636;52.704;6.536;2023-12-07T05:26:48;50.38;;;15.65;;
58338;SDS011;68636;52.704;6.536;2023-12-07T05:29:14;46.00;;;14.77;;
58338;SDS011;68636;52.704;6.536;2023-12-07T05:31:40;44.70;;;15.07;;
58338;SDS011;68636;52.704;6.536;2023-12-07T05:34:07;44.40;;;15.15;;
58338;SDS011;68636;52.704;6.536;2023-12-07T05:36:33;44.97;;;14.60;;
58338;SDS011;68636;52.704;6.536;2023-12-07T05:38:59;46.55;;;14.40;;
58338;SDS011;68636;52.704;6.536;2023-12-07T05:41:25;43.65;;;15.30;;
58338;SDS011;68636;52.704;6.536;2023-12-07T05:43:52;46.00;;;15.75;;
58338;SDS011;68636;52.704;6.536;2023-12-07T05:46:18;46.30;;;15.88;;
58338;SDS011;68636;52.704;6.536;2023-12-07T05:48:44;53.20;;;16.83;;
58338;SDS011;68636;52.704;6.536;2023-12-07T05:51:15;45.10;;;15.27;;
58338;SDS011;68636;52.704;6.536;2023-12-07T05:53:41;42.20;;;14.27;;
58338;SDS011;68636;52.704;6.536;2023-12-07T05:56:08;48.10;;;15.98;;
58338;SDS011;68636;52.704;6.536;2023-12-07T05:58:34;53.47;;;16.67;;
58338;SDS011;68636;52.704;6.536;2023-12-07T06:01:00;40.38;;;14.68;;
58338;SDS011;68636;52.704;6.536;2023-12-07T06:03:27;52.38;;;15.35;;
58338;SDS011;68636;52.704;6.536;2023-12-07T06:05:54;45.75;;;15.00;;
58338;SDS011;68636;52.704;6.536;2023-12-07T06:08:21;44.40;;;15.63;;
58338;SDS011;68636;52.704;6.536;2023-12-07T06:10:47;46.83;;;15.63;;
58338;SDS011;68636;52.704;6.536;2023-12-07T06:13:13;58.35;;;15.85;;
58338;SDS011;68636;52.704;6.536;2023-12-07T06:15:40;48.40;;;15.80;;
58338;SDS011;68636;52.704;6.536;2023-12-07T06:18:06;51.13;;;15.90;;
58338;SDS011;68636;52.704;6.536;2023-12-07T06:20:33;48.25;;;16.08;;
58338;SDS011;68636;52.704;6.536;2023-12-07T06:23:00;42.33;;;15.48;;
58338;SDS011;68636;52.704;6.536;2023-12-07T06:25:27;55.70;;;17.15;;
58338;SDS011;68636;52.704;6.536;2023-12-07T06:27:53;44.47;;;15.55;;
58338;SDS011;68636;52.704;6.536;2023-12-07T06:30:21;49.50;;;15.93;;
58338;SDS011;68636;52.704;6.536;2023-12-07T06:32:47;51.92;;;16.88;;
58338;SDS011;68636;52.704;6.536;2023-12-07T06:35:13;52.63;;;16.50;;
58338;SDS011;68636;52.704;6.536;2023-12-07T06:37:40;50.88;;;16.83;;
58338;SDS011;68636;52.704;6.536;2023-12-07T06:40:08;44.05;;;15.55;;
58338;SDS011;68636;52.704;6.536;2023-12-07T06:42:38;44.85;;;15.45;;
58338;SDS011;68636;52.704;6.536;2023-12-07T06:45:04;49.30;;;15.77;;
58338;SDS011;68636;52.704;6.536;2023-12-07T06:47:35;52.42;;;16.38;;
58338;SDS011;68636;52.704;6.536;2023-12-07T06:50:01;42.85;;;15.10;;
58338;SDS011;68636;52.704;6.536;2023-12-07T06:52:28;51.10;;;15.55;;
58338;SDS011;68636;52.704;6.536;2023-12-07T06:54:54;45.45;;;15.18;;
58338;SDS011;68636;52.704;6.536;2023-12-07T06:57:20;47.92;;;15.45;;
58338;SDS011;68636;52.704;6.536;2023-12-07T06:59:47;45.92;;;16.08;;
58338;SDS011;68636;52.704;6.536;2023-12-07T07:02:13;50.50;;;17.65;;
58338;SDS011;68636;52.704;6.536;2023-12-07T07:04:39;49.22;;;16.38;;
58338;SDS011;68636;52.704;6.536;2023-12-07T07:07:05;52.22;;;17.33;;
58338;SDS011;68636;52.704;6.536;2023-12-07T07:09:31;46.10;;;16.80;;
58338;SDS011;68636;52.704;6.536;2023-12-07T07:11:58;54.90;;;18.42;;
58338;SDS011;68636;52.704;6.536;2023-12-07T07:14:24;51.25;;;17.38;;
58338;SDS011;68636;52.704;6.536;2023-12-07T07:16:50;53.38;;;17.67;;
58338;SDS011;68636;52.704;6.536;2023-12-07T07:19:17;49.58;;;18.27;;
58338;SDS011;68636;52.704;6.536;2023-12-07T07:21:43;50.35;;;17.00;;
58338;SDS011;68636;52.704;6.536;2023-12-07T07:24:09;49.75;;;17.88;;
58338;SDS011;68636;52.704;6.536;2023-12-07T07:26:35;45.33;;;17.67;;
58338;SDS011;68636;52.704;6.536;2023-12-07T07:29:01;45.35;;;16.77;;
58338;SDS011;68636;52.704;6.536;2023-12-07T07:31:28;51.95;;;17.88;;
58338;SDS011;68636;52.704;6.536;2023-12-07T07:33:55;48.33;;;18.17;;
58338;SDS011;68636;52.704;6.536;2023-12-07T07:36:21;61.97;;;19.98;;
58338;SDS011;68636;52.704;6.536;2023-12-07T07:38:47;50.03;;;18.45;;
58338;SDS011;68636;52.704;6.536;2023-12-07T07:41:13;49.78;;;17.05;;
58338;SDS011;68636;52.704;6.536;2023-12-07T07:43:40;59.40;;;20.10;;
58338;SDS011;68636;52.704;6.536;2023-12-07T07:46:06;57.13;;;19.23;;
58338;SDS011;68636;52.704;6.536;2023-12-07T07:48:33;59.97;;;20.30;;
58338;SDS011;68636;52.704;6.536;2023-12-07T07:50:59;49.28;;;17.52;;
58338;SDS011;68636;52.704;6.536;2023-12-07T07:53:25;54.33;;;17.98;;
58338;SDS011;68636;52.704;6.536;2023-12-07T07:55:52;51.65;;;18.45;;
58338;SDS011;68636;52.704;6.536;2023-12-07T07:58:18;64.95;;;19.85;;
58338;SDS011;68636;52.704;6.536;2023-12-07T08:00:44;57.55;;;19.77;;
58338;SDS011;68636;52.704;6.536;2023-12-07T08:05:37;47.70;;;16.57;;
58338;SDS011;68636;52.704;6.536;2023-12-07T08:08:03;48.05;;;16.67;;
58338;SDS011;68636;52.704;6.536;2023-12-07T08:10:29;54.92;;;18.08;;
58338;SDS011;68636;52.704;6.536;2023-12-07T08:12:55;59.08;;;18.90;;
58338;SDS011;68636;52.704;6.536;2023-12-07T08:15:22;59.95;;;20.95;;
58338;SDS011;68636;52.704;6.536;2023-12-07T08:17:48;52.17;;;19.55;;
58338;SDS011;68636;52.704;6.536;2023-12-07T08:20:14;59.38;;;19.77;;
58338;SDS011;68636;52.704;6.536;2023-12-07T08:22:40;62.45;;;20.38;;
58338;SDS011;68636;52.704;6.536;2023-12-07T08:25:06;58.95;;;20.40;;
58338;SDS011;68636;52.704;6.536;2023-12-07T08:27:33;80.80;;;19.88;;
58338;SDS011;68636;52.704;6.536;2023-12-07T08:29:59;131.80;;;23.63;;
58338;SDS011;68636;52.704;6.536;2023-12-07T08:32:25;195.03;;;27.90;;
58338;SDS011;68636;52.704;6.536;2023-12-07T08:34:52;168.85;;;26.85;;
58338;SDS011;68636;52.704;6.536;2023-12-07T08:37:18;441.92;;;44.00;;
58338;SDS011;68636;52.704;6.536;2023-12-07T08:39:44;157.88;;;26.45;;
58338;SDS011;68636;52.704;6.536;2023-12-07T08:42:11;235.88;;;31.17;;
58338;SDS011;68636;52.704;6.536;2023-12-07T08:44:37;253.33;;;32.20;;
58338;SDS011;68636;52.704;6.536;2023-12-07T08:47:03;216.35;;;28.33;;
58338;SDS011;68636;52.704;6.536;2023-12-07T08:49:30;248.93;;;29.35;;
58338;SDS011;68636;52.704;6.536;2023-12-07T08:51:57;339.48;;;31.95;;
58338;SDS011;68636;52.704;6.536;2023-12-07T08:54:23;288.75;;;32.08;;
58338;SDS011;68636;52.704;6.536;2023-12-07T08:56:49;224.75;;;25.65;;
58338;SDS011;68636;52.704;6.536;2023-12-07T08:59:15;150.23;;;24.27;;
58338;SDS011;68636;52.704;6.536;2023-12-07T09:01:41;141.77;;;22.15;;
58338;SDS011;68636;52.704;6.536;2023-12-07T09:04:07;178.45;;;22.25;;
58338;SDS011;68636;52.704;6.536;2023-12-07T09:06:34;149.40;;;23.95;;
58338;SDS011;68636;52.704;6.536;2023-12-07T09:09:00;109.57;;;22.45;;
58338;SDS011;68636;52.704;6.536;2023-12-07T09:11:27;165.40;;;24.90;;
58338;SDS011;68636;52.704;6.536;2023-12-07T09:13:53;118.45;;;22.63;;
58338;SDS011;68636;52.704;6.536;2023-12-07T09:16:19;170.98;;;25.98;;
58338;SDS011;68636;52.704;6.536;2023-12-07T09:18:46;218.63;;;32.15;;
58338;SDS011;68636;52.704;6.536;2023-12-07T09:21:12;98.22;;;20.65;;
58338;SDS011;68636;52.704;6.536;2023-12-07T09:23:39;263.15;;;31.55;;
58338;SDS011;68636;52.704;6.536;2023-12-07T09:26:05;96.03;;;21.13;;
58338;SDS011;68636;52.704;6.536;2023-12-07T09:28:31;240.75;;;32.78;;
58338;SDS011;68636;52.704;6.536;2023-12-07T09:30:58;95.75;;;20.17;;
58338;SDS011;68636;52.704;6.536;2023-12-07T09:33:24;153.60;;;23.75;;
58338;SDS011;68636;52.704;6.536;2023-12-07T09:35:50;145.50;;;23.95;;
58338;SDS011;68636;52.704;6.536;2023-12-07T09:38:16;226.05;;;22.75;;
58338;SDS011;68636;52.704;6.536;2023-12-07T09:40:43;169.18;;;26.77;;
58338;SDS011;68636;52.704;6.536;2023-12-07T09:43:09;159.15;;;26.10;;
58338;SDS011;68636;52.704;6.536;2023-12-07T09:45:35;124.43;;;23.63;;
58338;SDS011;68636;52.704;6.536;2023-12-07T09:48:01;194.45;;;22.20;;
58338;SDS011;68636;52.704;6.536;2023-12-07T09:50:27;166.02;;;28.38;;
58338;SDS011;68636;52.704;6.536;2023-12-07T09:52:54;139.93;;;26.73;;
58338;SDS011;68636;52.704;6.536;2023-12-07T09:55:22;114.88;;;20.13;;
58338;SDS011;68636;52.704;6.536;2023-12-07T09:57:48;108.57;;;20.55;;
58338;SDS011;68636;52.704;6.536;2023-12-07T10:00:15;140.35;;;22.67;;
58338;SDS011;68636;52.704;6.536;2023-12-07T10:02:44;96.78;;;20.52;;
58338;SDS011;68636;52.704;6.536;2023-12-07T10:05:14;129.75;;;21.83;;
58338;SDS011;68636;52.704;6.536;2023-12-07T10:07:44;148.10;;;23.85;;
58338;SDS011;68636;52.704;6.536;2023-12-07T10:10:14;183.23;;;26.63;;
58338;SDS011;68636;52.704;6.536;2023-12-07T10:12:53;137.38;;;22.38;;
58338;SDS011;68636;52.704;6.536;2023-12-07T10:15:20;124.13;;;18.25;;
58338;SDS011;68636;52.704;6.536;2023-12-07T10:17:51;136.05;;;21.52;;
58338;SDS011;68636;52.704;6.536;2023-12-07T10:20:18;135.35;;;26.52;;
58338;SDS011;68636;52.704;6.536;2023-12-07T10:22:47;152.57;;;24.63;;
58338;SDS011;68636;52.704;6.536;2023-12-07T10:25:13;194.50;;;30.90;;
58338;SDS011;68636;52.704;6.536;2023-12-07T10:27:42;154.13;;;24.83;;
58338;SDS011;68636;52.704;6.536;2023-12-07T10:30:09;312.35;;;40.08;;
58338;SDS011;68636;52.704;6.536;2023-12-07T10:32:37;128.98;;;23.38;;
58338;SDS011;68636;52.704;6.536;2023-12-07T10:37:30;169.15;;;32.63;;
58338;SDS011;68636;52.704;6.536;2023-12-07T10:39:56;149.95;;;26.77;;
58338;SDS011;68636;52.704;6.536;2023-12-07T10:42:23;162.40;;;26.77;;
58338;SDS011;68636;52.704;6.536;2023-12-07T10:44:52;292.42;;;37.58;;
58338;SDS011;68636;52.704;6.536;2023-12-07T10:47:19;143.68;;;24.65;;
58338;SDS011;68636;52.704;6.536;2023-12-07T10:52:13;159.75;;;25.40;;
58338;SDS011;68636;52.704;6.536;2023-12-07T10:54:50;154.70;;;23.30;;
58338;SDS011;68636;52.704;6.536;2023-12-07T10:57:21;152.50;;;29.88;;
58338;SDS011;68636;52.704;6.536;2023-12-07T10:59:47;157.20;;;23.10;;
58338;SDS011;68636;52.704;6.536;2023-12-07T11:02:15;159.63;;;24.63;;
58338;SDS011;68636;52.704;6.536;2023-12-07T11:04:41;138.75;;;21.80;;
58338;SDS011;68636;52.704;6.536;2023-12-07T11:07:09;174.38;;;24.20;;
58338;SDS011;68636;52.704;6.536;2023-12-07T11:09:38;123.82;;;24.40;;
58338;SDS011;68636;52.704;6.536;2023-12-07T11:12:10;207.55;;;27.35;;
58338;SDS011;68636;52.704;6.536;2023-12-07T11:14:38;146.32;;;28.35;;
58338;SDS011;68636;52.704;6.536;2023-12-07T11:17:04;116.72;;;22.88;;
58338;SDS011;68636;52.704;6.536;2023-12-07T11:22:06;135.95;;;27.95;;
58338;SDS011;68636;52.704;6.536;2023-12-07T11:24:33;143.95;;;25.60;;
58338;SDS011;68636;52.704;6.536;2023-12-07T11:27:01;97.03;;;22.33;;
58338;SDS011;68636;52.704;6.536;2023-12-07T11:29:30;85.50;;;22.90;;
58338;SDS011;68636;52.704;6.536;2023-12-07T11:31:58;110.30;;;23.05;;
58338;SDS011;68636;52.704;6.536;2023-12-07T11:34:36;132.25;;;24.80;;
58338;SDS011;68636;52.704;6.536;2023-12-07T11:37:02;122.27;;;22.47;;
58338;SDS011;68636;52.704;6.536;2023-12-07T11:39:29;87.25;;;21.90;;
58338;SDS011;68636;52.704;6.536;2023-12-07T11:41:55;89.72;;;19.52;;
58338;SDS011;68636;52.704;6.536;2023-12-07T11:44:32;147.95;;;28.73;;
58338;SDS011;68636;52.704;6.536;2023-12-07T11:46:59;94.13;;;20.83;;
58338;SDS011;68636;52.704;6.536;2023-12-07T11:49:25;84.07;;;21.80;;
58338;SDS011;68636;52.704;6.536;2023-12-07T11:51:52;131.93;;;21.67;;
58338;SDS011;68636;52.704;6.536;2023-12-07T11:54:18;131.40;;;27.25;;
58338;SDS011;68636;52.704;6.536;2023-12-07T11:56:44;103.57;;;23.83;;
58338;SDS011;68636;52.704;6.536;2023-12-07T11:59:10;128.40;;;22.48;;
58338;SDS011;68636;52.704;6.536;2023-12-07T12:01:36;90.97;;;20.98;;
58338;SDS011;68636;52.704;6.536;2023-12-07T12:04:02;112.88;;;25.23;;
58338;SDS011;68636;52.704;6.536;2023-12-07T12:06:29;104.40;;;22.77;;
58338;SDS011;68636;52.704;6.536;2023-12-07T12:08:55;124.93;;;21.38;;
58338;SDS011;68636;52.704;6.536;2023-12-07T12:11:21;99.95;;;21.63;;
58338;SDS011;68636;52.704;6.536;2023-12-07T12:13:48;88.15;;;19.45;;
58338;SDS011;68636;52.704;6.536;2023-12-07T12:16:15;81.30;;;21.13;;
58338;SDS011;68636;52.704;6.536;2023-12-07T12:18:41;95.40;;;20.52;;
58338;SDS011;68636;52.704;6.536;2023-12-07T12:21:07;78.97;;;20.90;;
58338;SDS011;68636;52.704;6.536;2023-12-07T12:23:36;99.55;;;21.48;;
58338;SDS011;68636;52.704;6.536;2023-12-07T12:26:05;102.53;;;22.20;;
58338;SDS011;68636;52.704;6.536;2023-12-07T12:28:31;60.33;;;19.60;;
58338;SDS011;68636;52.704;6.536;2023-12-07T12:30:57;62.97;;;20.02;;
58338;SDS011;68636;52.704;6.536;2023-12-07T12:33:24;85.32;;;22.00;;
58338;SDS011;68636;52.704;6.536;2023-12-07T12:36:00;73.70;;;19.75;;
58338;SDS011;68636;52.704;6.536;2023-12-07T12:40:54;66.38;;;19.30;;
58338;SDS011;68636;52.704;6.536;2023-12-07T12:43:20;63.97;;;18.98;;
58338;SDS011;68636;52.704;6.536;2023-12-07T12:45:47;60.72;;;19.15;;
58338;SDS011;68636;52.704;6.536;2023-12-07T12:48:13;73.47;;;19.77;;
58338;SDS011;68636;52.704;6.536;2023-12-07T12:50:39;113.30;;;24.20;;
58338;SDS011;68636;52.704;6.536;2023-12-07T12:53:06;79.80;;;20.83;;
58338;SDS011;68636;52.704;6.536;2023-12-07T12:55:33;60.58;;;19.27;;
58338;SDS011;68636;52.704;6.536;2023-12-07T12:58:01;71.85;;;20.73;;
58338;SDS011;68636;52.704;6.536;2023-12-07T13:00:29;71.03;;;19.95;;
58338;SDS011;68636;52.704;6.536;2023-12-07T13:02:56;68.78;;;19.70;;
58338;SDS011;68636;52.704;6.536;2023-12-07T13:05:22;74.88;;;22.00;;
58338;SDS011;68636;52.704;6.536;2023-12-07T13:07:48;86.32;;;22.90;;
58338;SDS011;68636;52.704;6.536;2023-12-07T13:10:15;76.93;;;21.75;;
58338;SDS011;68636;52.704;6.536;2023-12-07T13:12:41;76.75;;;21.50;;
58338;SDS011;68636;52.704;6.536;2023-12-07T13:15:08;75.75;;;20.48;;
58338;SDS011;68636;52.704;6.536;2023-12-07T13:17:34;72.10;;;20.98;;
58338;SDS011;68636;52.704;6.536;2023-12-07T13:20:00;78.70;;;19.95;;
58338;SDS011;68636;52.704;6.536;2023-12-07T13:22:26;59.70;;;17.42;;
58338;SDS011;68636;52.704;6.536;2023-12-07T13:24:52;73.07;;;18.83;;
58338;SDS011;68636;52.704;6.536;2023-12-07T13:27:18;65.97;;;19.02;;
58338;SDS011;68636;52.704;6.536;2023-12-07T13:29:44;68.82;;;18.98;;
58338;SDS011;68636;52.704;6.536;2023-12-07T13:32:10;68.90;;;19.27;;
58338;SDS011;68636;52.704;6.536;2023-12-07T13:34:37;76.40;;;19.23;;
58338;SDS011;68636;52.704;6.536;2023-12-07T13:37:03;77.80;;;21.40;;
58338;SDS011;68636;52.704;6.536;2023-12-07T13:39:30;71.65;;;18.05;;
58338;SDS011;68636;52.704;6.536;2023-12-07T13:41:56;66.70;;;17.45;;
58338;SDS011;68636;52.704;6.536;2023-12-07T13:44:22;58.28;;;15.32;;
58338;SDS011;68636;52.704;6.536;2023-12-07T13:46:49;78.13;;;19.55;;
58338;SDS011;68636;52.704;6.536;2023-12-07T13:49:15;79.40;;;19.48;;
58338;SDS011;68636;52.704;6.536;2023-12-07T13:51:41;87.43;;;21.55;;
58338;SDS011;68636;52.704;6.536;2023-12-07T13:54:08;85.17;;;22.30;;
58338;SDS011;68636;52.704;6.536;2023-12-07T13:56:34;86.72;;;20.67;;
58338;SDS011;68636;52.704;6.536;2023-12-07T13:59:01;90.32;;;21.33;;
58338;SDS011;68636;52.704;6.536;2023-12-07T14:01:27;89.93;;;22.05;;
58338;SDS011;68636;52.704;6.536;2023-12-07T14:03:53;99.47;;;23.45;;
58338;SDS011;68636;52.704;6.536;2023-12-07T14:06:23;95.13;;;22.85;;
58338;SDS011;68636;52.704;6.536;2023-12-07T14:08:50;108.38;;;24.52;;
58338;SDS011;68636;52.704;6.536;2023-12-07T14:11:19;106.85;;;24.15;;
58338;SDS011;68636;52.704;6.536;2023-12-07T14:13:45;96.55;;;23.73;;
58338;SDS011;68636;52.704;6.536;2023-12-07T14:16:12;100.43;;;24.17;;
58338;SDS011;68636;52.704;6.536;2023-12-07T14:18:38;98.13;;;22.63;;
58338;SDS011;68636;52.704;6.536;2023-12-07T14:21:05;99.57;;;22.63;;
58338;SDS011;68636;52.704;6.536;2023-12-07T14:23:31;94.20;;;22.88;;
58338;SDS011;68636;52.704;6.536;2023-12-07T14:25:57;94.28;;;24.13;;
58338;SDS011;68636;52.704;6.536;2023-12-07T14:28:24;103.22;;;24.90;;
58338;SDS011;68636;52.704;6.536;2023-12-07T14:30:50;111.82;;;26.67;;
58338;SDS011;68636;52.704;6.536;2023-12-07T14:33:21;115.03;;;25.33;;